Aviation Digital Data Service (ADDS)

Output produced by METARs form (2110 UTC 13 November 2019)
found at http://www.aviationweather.gov/metar/data/
 
METAR text: KMHV 132040Z AUTO 00000KT 10SM CLR 23/M06 A3003 RMK A01
Conditions at: KMHV (MOJAVE , CA, US) observed 2040 UTC 13 November 2019
Temperature: 23.0°C (73°F)
Dewpoint: -6.0°C (21°F) [RH = 14%]
Pressure (altimeter): 30.03 inches Hg (1017.0 mb)
Winds: calm
Visibility: 10 or more miles (16+ km)
Ceiling: at least 12,000 feet AGL
Clouds: sky clear below 12,000 feet AGL
Weather: automated observation with no human augmentation;
there may or may not be significant weather present at this time

METAR text: KMHV 132020Z AUTO 00000KT 10SM CLR 23/M06 A3004 RMK A01
Conditions at: KMHV (MOJAVE , CA, US) observed 2020 UTC 13 November 2019
Temperature: 23.0°C (73°F)
Dewpoint: -6.0°C (21°F) [RH = 14%]
Pressure (altimeter): 30.04 inches Hg (1017.4 mb)
Winds: calm
Visibility: 10 or more miles (16+ km)
Ceiling: at least 12,000 feet AGL
Clouds: sky clear below 12,000 feet AGL
Weather: automated observation with no human augmentation;
there may or may not be significant weather present at this time

METAR text: KMHV 132000Z AUTO 00000KT 10SM CLR 22/M06 A3005 RMK A01
Conditions at: KMHV (MOJAVE , CA, US) observed 2000 UTC 13 November 2019
Temperature: 22.0°C (72°F)
Dewpoint: -6.0°C (21°F) [RH = 15%]
Pressure (altimeter): 30.05 inches Hg (1017.7 mb)
Winds: calm
Visibility: 10 or more miles (16+ km)
Ceiling: at least 12,000 feet AGL
Clouds: sky clear below 12,000 feet AGL
Weather: automated observation with no human augmentation;
there may or may not be significant weather present at this time

METAR text: KMHV 131940Z AUTO 14005KT 10SM CLR 21/M06 A3006 RMK A01
Conditions at: KMHV (MOJAVE , CA, US) observed 1940 UTC 13 November 2019
Temperature: 21.0°C (70°F)
Dewpoint: -6.0°C (21°F) [RH = 16%]
Pressure (altimeter): 30.06 inches Hg (1018.0 mb)
Winds: from the SE (140 degrees) at 6 MPH (5 knots; 2.6 m/s)
Visibility: 10 or more miles (16+ km)
Ceiling: at least 12,000 feet AGL
Clouds: sky clear below 12,000 feet AGL
Weather: automated observation with no human augmentation;
there may or may not be significant weather present at this time

METAR text: KMHV 131920Z AUTO 18003KT 10SM CLR 21/M06 A3007 RMK A01
Conditions at: KMHV (MOJAVE , CA, US) observed 1920 UTC 13 November 2019
Temperature: 21.0°C (70°F)
Dewpoint: -6.0°C (21°F) [RH = 16%]
Pressure (altimeter): 30.07 inches Hg (1018.4 mb)
Winds: from the S (180 degrees) at 3 MPH (3 knots; 1.5 m/s)
Visibility: 10 or more miles (16+ km)
Ceiling: at least 12,000 feet AGL
Clouds: sky clear below 12,000 feet AGL
Weather: automated observation with no human augmentation;
there may or may not be significant weather present at this time

METAR text: KMHV 131900Z AUTO 00000KT 10SM CLR 21/M06 A3008 RMK A01
Conditions at: KMHV (MOJAVE , CA, US) observed 1900 UTC 13 November 2019
Temperature: 21.0°C (70°F)
Dewpoint: -6.0°C (21°F) [RH = 16%]
Pressure (altimeter): 30.08 inches Hg (1018.7 mb)
Winds: calm
Visibility: 10 or more miles (16+ km)
Ceiling: at least 12,000 feet AGL
Clouds: sky clear below 12,000 feet AGL
Weather: automated observation with no human augmentation;
there may or may not be significant weather present at this time

METAR text: KMHV 131840Z AUTO 00000KT 10SM CLR 20/M06 A3009 RMK A01
Conditions at: KMHV (MOJAVE , CA, US) observed 1840 UTC 13 November 2019
Temperature: 20.0°C (68°F)
Dewpoint: -6.0°C (21°F) [RH = 17%]
Pressure (altimeter): 30.09 inches Hg (1019.0 mb)
Winds: calm
Visibility: 10 or more miles (16+ km)
Ceiling: at least 12,000 feet AGL
Clouds: sky clear below 12,000 feet AGL
Weather: automated observation with no human augmentation;
there may or may not be significant weather present at this time

METAR text: KMHV 131820Z AUTO 00000KT 10SM CLR 20/M06 A3009 RMK A01
Conditions at: KMHV (MOJAVE , CA, US) observed 1820 UTC 13 November 2019
Temperature: 20.0°C (68°F)
Dewpoint: -6.0°C (21°F) [RH = 17%]
Pressure (altimeter): 30.09 inches Hg (1019.0 mb)
Winds: calm
Visibility: 10 or more miles (16+ km)
Ceiling: at least 12,000 feet AGL
Clouds: sky clear below 12,000 feet AGL
Weather: automated observation with no human augmentation;
there may or may not be significant weather present at this time

METAR text: KMHV 131800Z AUTO 00000KT 10SM CLR 20/M07 A3010 RMK A01
Conditions at: KMHV (MOJAVE , CA, US) observed 1800 UTC 13 November 2019
Temperature: 20.0°C (68°F)
Dewpoint: -7.0°C (19°F) [RH = 15%]
Pressure (altimeter): 30.10 inches Hg (1019.4 mb)
Winds: calm
Visibility: 10 or more miles (16+ km)
Ceiling: at least 12,000 feet AGL
Clouds: sky clear below 12,000 feet AGL
Weather: automated observation with no human augmentation;
there may or may not be significant weather present at this time

METAR text: KMHV 131740Z AUTO 00000KT 10SM CLR 19/M07 A3010 RMK A01
Conditions at: KMHV (MOJAVE , CA, US) observed 1740 UTC 13 November 2019
Temperature: 19.0°C (66°F)
Dewpoint: -7.0°C (19°F) [RH = 16%]
Pressure (altimeter): 30.10 inches Hg (1019.4 mb)
Winds: calm
Visibility: 10 or more miles (16+ km)
Ceiling: at least 12,000 feet AGL
Clouds: sky clear below 12,000 feet AGL
Weather: automated observation with no human augmentation;
there may or may not be significant weather present at this time

METAR text: KMHV 131720Z AUTO 00000KT 10SM CLR 18/M07 A3010 RMK A01
Conditions at: KMHV (MOJAVE , CA, US) observed 1720 UTC 13 November 2019
Temperature: 18.0°C (64°F)
Dewpoint: -7.0°C (19°F) [RH = 18%]
Pressure (altimeter): 30.10 inches Hg (1019.4 mb)
Winds: calm
Visibility: 10 or more miles (16+ km)
Ceiling: at least 12,000 feet AGL
Clouds: sky clear below 12,000 feet AGL
Weather: automated observation with no human augmentation;
there may or may not be significant weather present at this time

METAR text: KMHV 131700Z AUTO 00000KT 10SM CLR 18/M07 A3010 RMK A01
Conditions at: KMHV (MOJAVE , CA, US) observed 1700 UTC 13 November 2019
Temperature: 18.0°C (64°F)
Dewpoint: -7.0°C (19°F) [RH = 18%]
Pressure (altimeter): 30.10 inches Hg (1019.4 mb)
Winds: calm
Visibility: 10 or more miles (16+ km)
Ceiling: at least 12,000 feet AGL
Clouds: sky clear below 12,000 feet AGL
Weather: automated observation with no human augmentation;
there may or may not be significant weather present at this time

METAR text: KMHV 131640Z AUTO 00000KT 10SM CLR 16/M07 A3010 RMK A01
Conditions at: KMHV (MOJAVE , CA, US) observed 1640 UTC 13 November 2019
Temperature: 16.0°C (61°F)
Dewpoint: -7.0°C (19°F) [RH = 20%]
Pressure (altimeter): 30.10 inches Hg (1019.4 mb)
Winds: calm
Visibility: 10 or more miles (16+ km)
Ceiling: at least 12,000 feet AGL
Clouds: sky clear below 12,000 feet AGL
Weather: automated observation with no human augmentation;
there may or may not be significant weather present at this time

METAR text: KMHV 131620Z AUTO 00000KT 10SM CLR 16/M07 A3010 RMK A01
Conditions at: KMHV (MOJAVE , CA, US) observed 1620 UTC 13 November 2019
Temperature: 16.0°C (61°F)
Dewpoint: -7.0°C (19°F) [RH = 20%]
Pressure (altimeter): 30.10 inches Hg (1019.4 mb)
Winds: calm
Visibility: 10 or more miles (16+ km)
Ceiling: at least 12,000 feet AGL
Clouds: sky clear below 12,000 feet AGL
Weather: automated observation with no human augmentation;
there may or may not be significant weather present at this time

METAR text: KMHV 131600Z AUTO 00000KT 8SM CLR 15/M07 A3009 RMK A01
Conditions at: KMHV (MOJAVE , CA, US) observed 1600 UTC 13 November 2019
Temperature: 15.0°C (59°F)
Dewpoint: -7.0°C (19°F) [RH = 21%]
Pressure (altimeter): 30.09 inches Hg (1019.0 mb)
Winds: calm
Visibility: 8 miles (13 km)
Ceiling: at least 12,000 feet AGL
Clouds: sky clear below 12,000 feet AGL
Weather: automated observation with no human augmentation;
there may or may not be significant weather present at this time

METAR text: KMHV 131540Z AUTO 00000KT 7SM CLR 13/M07 A3009 RMK A01
Conditions at: KMHV (MOJAVE , CA, US) observed 1540 UTC 13 November 2019
Temperature: 13.0°C (55°F)
Dewpoint: -7.0°C (19°F) [RH = 24%]
Pressure (altimeter): 30.09 inches Hg (1019.0 mb)
Winds: calm
Visibility: 7 miles (11 km)
Ceiling: at least 12,000 feet AGL
Clouds: sky clear below 12,000 feet AGL
Weather: automated observation with no human augmentation;
there may or may not be significant weather present at this time

METAR text: KMHV 131520Z AUTO 00000KT 4SM HZ CLR 11/M08 A3008 RMK A01
Conditions at: KMHV (MOJAVE , CA, US) observed 1520 UTC 13 November 2019
Temperature: 11.0°C (52°F)
Dewpoint: -8.0°C (18°F) [RH = 25%]
Pressure (altimeter): 30.08 inches Hg (1018.7 mb)
Winds: calm
Visibility: 4 miles ( 6 km)
Ceiling: at least 12,000 feet AGL
Clouds: sky clear below 12,000 feet AGL
Weather: HZ  (haze)

METAR text: KMHV 131500Z AUTO 32003KT 8SM CLR 09/M09 A3008 RMK A01
Conditions at: KMHV (MOJAVE , CA, US) observed 1500 UTC 13 November 2019
Temperature: 9.0°C (48°F)
Dewpoint: -9.0°C (16°F) [RH = 27%]
Pressure (altimeter): 30.08 inches Hg (1018.7 mb)
Winds: from the NW (320 degrees) at 3 MPH (3 knots; 1.5 m/s)
Visibility: 8 miles (13 km)
Ceiling: at least 12,000 feet AGL
Clouds: sky clear below 12,000 feet AGL
Weather: automated observation with no human augmentation;
there may or may not be significant weather present at this time

METAR text: KMHV 131440Z AUTO 00000KT 6SM HZ CLR 07/M09 A3007 RMK A01
Conditions at: KMHV (MOJAVE , CA, US) observed 1440 UTC 13 November 2019
Temperature: 7.0°C (45°F)
Dewpoint: -9.0°C (16°F) [RH = 31%]
Pressure (altimeter): 30.07 inches Hg (1018.4 mb)
Winds: calm
Visibility: 6 miles (10 km)
Ceiling: at least 12,000 feet AGL
Clouds: sky clear below 12,000 feet AGL
Weather: HZ  (haze)

METAR text: KMHV 131420Z AUTO 32005KT 6SM HZ CLR 07/M09 A3006 RMK A01
Conditions at: KMHV (MOJAVE , CA, US) observed 1420 UTC 13 November 2019
Temperature: 7.0°C (45°F)
Dewpoint: -9.0°C (16°F) [RH = 31%]
Pressure (altimeter): 30.06 inches Hg (1018.0 mb)
Winds: from the NW (320 degrees) at 6 MPH (5 knots; 2.6 m/s)
Visibility: 6 miles (10 km)
Ceiling: at least 12,000 feet AGL
Clouds: sky clear below 12,000 feet AGL
Weather: HZ  (haze)

METAR text: KMHV 131400Z AUTO 35005KT 8SM CLR 08/M09 A3006 RMK A01
Conditions at: KMHV (MOJAVE , CA, US) observed 1400 UTC 13 November 2019
Temperature: 8.0°C (46°F)
Dewpoint: -9.0°C (16°F) [RH = 29%]
Pressure (altimeter): 30.06 inches Hg (1018.0 mb)
Winds: from the N (350 degrees) at 6 MPH (5 knots; 2.6 m/s)
Visibility: 8 miles (13 km)
Ceiling: at least 12,000 feet AGL
Clouds: sky clear below 12,000 feet AGL
Weather: automated observation with no human augmentation;
there may or may not be significant weather present at this time

METAR text: KMHV 131340Z AUTO 33004KT 8SM CLR 07/M09 A3006 RMK A01
Conditions at: KMHV (MOJAVE , CA, US) observed 1340 UTC 13 November 2019
Temperature: 7.0°C (45°F)
Dewpoint: -9.0°C (16°F) [RH = 31%]
Pressure (altimeter): 30.06 inches Hg (1018.0 mb)
Winds: from the NNW (330 degrees) at 5 MPH (4 knots; 2.1 m/s)
Visibility: 8 miles (13 km)
Ceiling: at least 12,000 feet AGL
Clouds: sky clear below 12,000 feet AGL
Weather: automated observation with no human augmentation;
there may or may not be significant weather present at this time

METAR text: KMHV 131320Z AUTO 33003KT 10SM CLR 08/M09 A3006 RMK A01
Conditions at: KMHV (MOJAVE , CA, US) observed 1320 UTC 13 November 2019
Temperature: 8.0°C (46°F)
Dewpoint: -9.0°C (16°F) [RH = 29%]
Pressure (altimeter): 30.06 inches Hg (1018.0 mb)
Winds: from the NNW (330 degrees) at 3 MPH (3 knots; 1.5 m/s)
Visibility: 10 or more miles (16+ km)
Ceiling: at least 12,000 feet AGL
Clouds: sky clear below 12,000 feet AGL
Weather: automated observation with no human augmentation;
there may or may not be significant weather present at this time

METAR text: KMHV 131300Z AUTO 31004KT 10SM CLR 07/M09 A3006 RMK A01
Conditions at: KMHV (MOJAVE , CA, US) observed 1300 UTC 13 November 2019
Temperature: 7.0°C (45°F)
Dewpoint: -9.0°C (16°F) [RH = 31%]
Pressure (altimeter): 30.06 inches Hg (1018.0 mb)
Winds: from the NW (310 degrees) at 5 MPH (4 knots; 2.1 m/s)
Visibility: 10 or more miles (16+ km)
Ceiling: at least 12,000 feet AGL
Clouds: sky clear below 12,000 feet AGL
Weather: automated observation with no human augmentation;
there may or may not be significant weather present at this time

METAR text: KMHV 131240Z AUTO 30004KT 10SM CLR 08/M09 A3006 RMK A01
Conditions at: KMHV (MOJAVE , CA, US) observed 1240 UTC 13 November 2019
Temperature: 8.0°C (46°F)
Dewpoint: -9.0°C (16°F) [RH = 29%]
Pressure (altimeter): 30.06 inches Hg (1018.0 mb)
Winds: from the WNW (300 degrees) at 5 MPH (4 knots; 2.1 m/s)
Visibility: 10 or more miles (16+ km)
Ceiling: at least 12,000 feet AGL
Clouds: sky clear below 12,000 feet AGL
Weather: automated observation with no human augmentation;
there may or may not be significant weather present at this time

METAR text: KMHV 131220Z AUTO 31004KT 10SM FEW045 08/M09 A3006 RMK A01
Conditions at: KMHV (MOJAVE , CA, US) observed 1220 UTC 13 November 2019
Temperature: 8.0°C (46°F)
Dewpoint: -9.0°C (16°F) [RH = 29%]
Pressure (altimeter): 30.06 inches Hg (1018.0 mb)
Winds: from the NW (310 degrees) at 5 MPH (4 knots; 2.1 m/s)
Visibility: 10 or more miles (16+ km)
Ceiling: at least 12,000 feet AGL
Clouds: few clouds at 4500 feet AGL
Weather: automated observation with no human augmentation;
there may or may not be significant weather present at this time

METAR text: KMHV 131200Z AUTO 33003KT 10SM FEW047 09/M08 A3005 RMK A01
Conditions at: KMHV (MOJAVE , CA, US) observed 1200 UTC 13 November 2019
Temperature: 9.0°C (48°F)
Dewpoint: -8.0°C (18°F) [RH = 29%]
Pressure (altimeter): 30.05 inches Hg (1017.7 mb)
Winds: from the NNW (330 degrees) at 3 MPH (3 knots; 1.5 m/s)
Visibility: 10 or more miles (16+ km)
Ceiling: at least 12,000 feet AGL
Clouds: few clouds at 4700 feet AGL
Weather: automated observation with no human augmentation;
there may or may not be significant weather present at this time

METAR text: KMHV 131140Z AUTO 00000KT 10SM CLR 09/M08 A3005 RMK A01
Conditions at: KMHV (MOJAVE , CA, US) observed 1140 UTC 13 November 2019
Temperature: 9.0°C (48°F)
Dewpoint: -8.0°C (18°F) [RH = 29%]
Pressure (altimeter): 30.05 inches Hg (1017.7 mb)
Winds: calm
Visibility: 10 or more miles (16+ km)
Ceiling: at least 12,000 feet AGL
Clouds: sky clear below 12,000 feet AGL
Weather: automated observation with no human augmentation;
there may or may not be significant weather present at this time

METAR text: KMHV 131120Z AUTO 34003KT 10SM CLR 09/M09 A3006 RMK A01
Conditions at: KMHV (MOJAVE , CA, US) observed 1120 UTC 13 November 2019
Temperature: 9.0°C (48°F)
Dewpoint: -9.0°C (16°F) [RH = 27%]
Pressure (altimeter): 30.06 inches Hg (1018.0 mb)
Winds: from the NNW (340 degrees) at 3 MPH (3 knots; 1.5 m/s)
Visibility: 10 or more miles (16+ km)
Ceiling: at least 12,000 feet AGL
Clouds: sky clear below 12,000 feet AGL
Weather: automated observation with no human augmentation;
there may or may not be significant weather present at this time

METAR text: KMHV 131100Z AUTO 00000KT 10SM CLR 09/M08 A3006 RMK A01
Conditions at: KMHV (MOJAVE , CA, US) observed 1100 UTC 13 November 2019
Temperature: 9.0°C (48°F)
Dewpoint: -8.0°C (18°F) [RH = 29%]
Pressure (altimeter): 30.06 inches Hg (1018.0 mb)
Winds: calm
Visibility: 10 or more miles (16+ km)
Ceiling: at least 12,000 feet AGL
Clouds: sky clear below 12,000 feet AGL
Weather: automated observation with no human augmentation;
there may or may not be significant weather present at this time

METAR text: KMHV 131040Z AUTO 33005KT 10SM CLR 09/M08 A3006 RMK A01
Conditions at: KMHV (MOJAVE , CA, US) observed 1040 UTC 13 November 2019
Temperature: 9.0°C (48°F)
Dewpoint: -8.0°C (18°F) [RH = 29%]
Pressure (altimeter): 30.06 inches Hg (1018.0 mb)
Winds: from the NNW (330 degrees) at 6 MPH (5 knots; 2.6 m/s)
Visibility: 10 or more miles (16+ km)
Ceiling: at least 12,000 feet AGL
Clouds: sky clear below 12,000 feet AGL
Weather: automated observation with no human augmentation;
there may or may not be significant weather present at this time

METAR text: KMHV 131020Z AUTO 31004KT 9SM CLR 09/M08 A3006 RMK A01
Conditions at: KMHV (MOJAVE , CA, US) observed 1020 UTC 13 November 2019
Temperature: 9.0°C (48°F)
Dewpoint: -8.0°C (18°F) [RH = 29%]
Pressure (altimeter): 30.06 inches Hg (1018.0 mb)
Winds: from the NW (310 degrees) at 5 MPH (4 knots; 2.1 m/s)
Visibility: 9 miles (14 km)
Ceiling: at least 12,000 feet AGL
Clouds: sky clear below 12,000 feet AGL
Weather: automated observation with no human augmentation;
there may or may not be significant weather present at this time

METAR text: KMHV 131000Z AUTO 30003KT 10SM CLR 10/M08 A3006 RMK A01
Conditions at: KMHV (MOJAVE , CA, US) observed 1000 UTC 13 November 2019
Temperature: 10.0°C (50°F)
Dewpoint: -8.0°C (18°F) [RH = 27%]
Pressure (altimeter): 30.06 inches Hg (1018.0 mb)
Winds: from the WNW (300 degrees) at 3 MPH (3 knots; 1.5 m/s)
Visibility: 10 or more miles (16+ km)
Ceiling: at least 12,000 feet AGL
Clouds: sky clear below 12,000 feet AGL
Weather: automated observation with no human augmentation;
there may or may not be significant weather present at this time

METAR text: KMHV 130940Z AUTO 32006KT 10SM CLR 11/M08 A3007 RMK A01
Conditions at: KMHV (MOJAVE , CA, US) observed 0940 UTC 13 November 2019
Temperature: 11.0°C (52°F)
Dewpoint: -8.0°C (18°F) [RH = 25%]
Pressure (altimeter): 30.07 inches Hg (1018.4 mb)
Winds: from the NW (320 degrees) at 7 MPH (6 knots; 3.1 m/s)
Visibility: 10 or more miles (16+ km)
Ceiling: at least 12,000 feet AGL
Clouds: sky clear below 12,000 feet AGL
Weather: automated observation with no human augmentation;
there may or may not be significant weather present at this time

METAR text: KMHV 130920Z AUTO 32004KT 10SM CLR 11/M08 A3007 RMK A01
Conditions at: KMHV (MOJAVE , CA, US) observed 0920 UTC 13 November 2019
Temperature: 11.0°C (52°F)
Dewpoint: -8.0°C (18°F) [RH = 25%]
Pressure (altimeter): 30.07 inches Hg (1018.4 mb)
Winds: from the NW (320 degrees) at 5 MPH (4 knots; 2.1 m/s)
Visibility: 10 or more miles (16+ km)
Ceiling: at least 12,000 feet AGL
Clouds: sky clear below 12,000 feet AGL
Weather: automated observation with no human augmentation;
there may or may not be significant weather present at this time

METAR text: KMHV 130900Z AUTO 27004KT 10SM CLR 11/M08 A3008 RMK A01
Conditions at: KMHV (MOJAVE , CA, US) observed 0900 UTC 13 November 2019
Temperature: 11.0°C (52°F)
Dewpoint: -8.0°C (18°F) [RH = 25%]
Pressure (altimeter): 30.08 inches Hg (1018.7 mb)
Winds: from the W (270 degrees) at 5 MPH (4 knots; 2.1 m/s)
Visibility: 10 or more miles (16+ km)
Ceiling: at least 12,000 feet AGL
Clouds: sky clear below 12,000 feet AGL
Weather: automated observation with no human augmentation;
there may or may not be significant weather present at this time

METAR text: KMHV 130840Z AUTO 32009KT 10SM CLR 11/M08 A3008 RMK A01
Conditions at: KMHV (MOJAVE , CA, US) observed 0840 UTC 13 November 2019
Temperature: 11.0°C (52°F)
Dewpoint: -8.0°C (18°F) [RH = 25%]
Pressure (altimeter): 30.08 inches Hg (1018.7 mb)
Winds: from the NW (320 degrees) at 10 MPH (9 knots; 4.6 m/s)
Visibility: 10 or more miles (16+ km)
Ceiling: at least 12,000 feet AGL
Clouds: sky clear below 12,000 feet AGL
Weather: automated observation with no human augmentation;
there may or may not be significant weather present at this time

METAR text: KMHV 130820Z AUTO 33008KT 10SM FEW046 11/M07 A3008 RMK A01
Conditions at: KMHV (MOJAVE , CA, US) observed 0820 UTC 13 November 2019
Temperature: 11.0°C (52°F)
Dewpoint: -7.0°C (19°F) [RH = 28%]
Pressure (altimeter): 30.08 inches Hg (1018.7 mb)
Winds: from the NNW (330 degrees) at 9 MPH (8 knots; 4.1 m/s)
Visibility: 10 or more miles (16+ km)
Ceiling: at least 12,000 feet AGL
Clouds: few clouds at 4600 feet AGL
Weather: automated observation with no human augmentation;
there may or may not be significant weather present at this time

METAR text: KMHV 130800Z AUTO 33009KT 10SM CLR 11/M07 A3009 RMK A01
Conditions at: KMHV (MOJAVE , CA, US) observed 0800 UTC 13 November 2019
Temperature: 11.0°C (52°F)
Dewpoint: -7.0°C (19°F) [RH = 28%]
Pressure (altimeter): 30.09 inches Hg (1019.0 mb)
Winds: from the NNW (330 degrees) at 10 MPH (9 knots; 4.6 m/s)
Visibility: 10 or more miles (16+ km)
Ceiling: at least 12,000 feet AGL
Clouds: sky clear below 12,000 feet AGL
Weather: automated observation with no human augmentation;
there may or may not be significant weather present at this time

METAR text: KMHV 130740Z AUTO 33009KT 10SM CLR 11/M07 A3009 RMK A01
Conditions at: KMHV (MOJAVE , CA, US) observed 0740 UTC 13 November 2019
Temperature: 11.0°C (52°F)
Dewpoint: -7.0°C (19°F) [RH = 28%]
Pressure (altimeter): 30.09 inches Hg (1019.0 mb)
Winds: from the NNW (330 degrees) at 10 MPH (9 knots; 4.6 m/s)
Visibility: 10 or more miles (16+ km)
Ceiling: at least 12,000 feet AGL
Clouds: sky clear below 12,000 feet AGL
Weather: automated observation with no human augmentation;
there may or may not be significant weather present at this time

METAR text: KMHV 130720Z AUTO 33009KT 10SM FEW045 12/M07 A3009 RMK A01
Conditions at: KMHV (MOJAVE , CA, US) observed 0720 UTC 13 November 2019
Temperature: 12.0°C (54°F)
Dewpoint: -7.0°C (19°F) [RH = 26%]
Pressure (altimeter): 30.09 inches Hg (1019.0 mb)
Winds: from the NNW (330 degrees) at 10 MPH (9 knots; 4.6 m/s)
Visibility: 10 or more miles (16+ km)
Ceiling: at least 12,000 feet AGL
Clouds: few clouds at 4500 feet AGL
Weather: automated observation with no human augmentation;
there may or may not be significant weather present at this time

METAR text: KMHV 130700Z AUTO 33009KT 10SM FEW038 FEW048 12/M07 A3009 RMK A01
Conditions at: KMHV (MOJAVE , CA, US) observed 0700 UTC 13 November 2019
Temperature: 12.0°C (54°F)
Dewpoint: -7.0°C (19°F) [RH = 26%]
Pressure (altimeter): 30.09 inches Hg (1019.0 mb)
Winds: from the NNW (330 degrees) at 10 MPH (9 knots; 4.6 m/s)
Visibility: 10 or more miles (16+ km)
Ceiling: at least 12,000 feet AGL
Clouds: few clouds at 3800 feet AGL
few clouds at 4800 feet AGL
Weather: automated observation with no human augmentation;
there may or may not be significant weather present at this time

METAR text: KMHV 130640Z AUTO 33006KT 10SM FEW046 12/M07 A3009 RMK A01
Conditions at: KMHV (MOJAVE , CA, US) observed 0640 UTC 13 November 2019
Temperature: 12.0°C (54°F)
Dewpoint: -7.0°C (19°F) [RH = 26%]
Pressure (altimeter): 30.09 inches Hg (1019.0 mb)
Winds: from the NNW (330 degrees) at 7 MPH (6 knots; 3.1 m/s)
Visibility: 10 or more miles (16+ km)
Ceiling: at least 12,000 feet AGL
Clouds: few clouds at 4600 feet AGL
Weather: automated observation with no human augmentation;
there may or may not be significant weather present at this time

METAR text: KMHV 130620Z AUTO 35007KT 10SM CLR 12/M07 A3009 RMK A01
Conditions at: KMHV (MOJAVE , CA, US) observed 0620 UTC 13 November 2019
Temperature: 12.0°C (54°F)
Dewpoint: -7.0°C (19°F) [RH = 26%]
Pressure (altimeter): 30.09 inches Hg (1019.0 mb)
Winds: from the N (350 degrees) at 8 MPH (7 knots; 3.6 m/s)
Visibility: 10 or more miles (16+ km)
Ceiling: at least 12,000 feet AGL
Clouds: sky clear below 12,000 feet AGL
Weather: automated observation with no human augmentation;
there may or may not be significant weather present at this time

METAR text: KMHV 130600Z AUTO 34008KT 10SM CLR 13/M07 A3009 RMK A01
Conditions at: KMHV (MOJAVE , CA, US) observed 0600 UTC 13 November 2019
Temperature: 13.0°C (55°F)
Dewpoint: -7.0°C (19°F) [RH = 24%]
Pressure (altimeter): 30.09 inches Hg (1019.0 mb)
Winds: from the NNW (340 degrees) at 9 MPH (8 knots; 4.1 m/s)
Visibility: 10 or more miles (16+ km)
Ceiling: at least 12,000 feet AGL
Clouds: sky clear below 12,000 feet AGL
Weather: automated observation with no human augmentation;
there may or may not be significant weather present at this time

METAR text: KMHV 130540Z AUTO 33009KT 10SM CLR 13/M07 A3010 RMK A01
Conditions at: KMHV (MOJAVE , CA, US) observed 0540 UTC 13 November 2019
Temperature: 13.0°C (55°F)
Dewpoint: -7.0°C (19°F) [RH = 24%]
Pressure (altimeter): 30.10 inches Hg (1019.4 mb)
Winds: from the NNW (330 degrees) at 10 MPH (9 knots; 4.6 m/s)
Visibility: 10 or more miles (16+ km)
Ceiling: at least 12,000 feet AGL
Clouds: sky clear below 12,000 feet AGL
Weather: automated observation with no human augmentation;
there may or may not be significant weather present at this time

METAR text: KMHV 130520Z AUTO 34010KT 10SM CLR 14/M07 A3009 RMK A01
Conditions at: KMHV (MOJAVE , CA, US) observed 0520 UTC 13 November 2019
Temperature: 14.0°C (57°F)
Dewpoint: -7.0°C (19°F) [RH = 23%]
Pressure (altimeter): 30.09 inches Hg (1019.0 mb)
Winds: from the NNW (340 degrees) at 12 MPH (10 knots; 5.1 m/s)
Visibility: 10 or more miles (16+ km)
Ceiling: at least 12,000 feet AGL
Clouds: sky clear below 12,000 feet AGL
Weather: automated observation with no human augmentation;
there may or may not be significant weather present at this time

METAR text: KMHV 130500Z AUTO 32007KT 10SM CLR 14/M07 A3009 RMK A01
Conditions at: KMHV (MOJAVE , CA, US) observed 0500 UTC 13 November 2019
Temperature: 14.0°C (57°F)
Dewpoint: -7.0°C (19°F) [RH = 23%]
Pressure (altimeter): 30.09 inches Hg (1019.0 mb)
Winds: from the NW (320 degrees) at 8 MPH (7 knots; 3.6 m/s)
Visibility: 10 or more miles (16+ km)
Ceiling: at least 12,000 feet AGL
Clouds: sky clear below 12,000 feet AGL
Weather: automated observation with no human augmentation;
there may or may not be significant weather present at this time

METAR text: KMHV 130440Z AUTO 32009KT 10SM CLR 14/M06 A3009 RMK A01
Conditions at: KMHV (MOJAVE , CA, US) observed 0440 UTC 13 November 2019
Temperature: 14.0°C (57°F)
Dewpoint: -6.0°C (21°F) [RH = 24%]
Pressure (altimeter): 30.09 inches Hg (1019.0 mb)
Winds: from the NW (320 degrees) at 10 MPH (9 knots; 4.6 m/s)
Visibility: 10 or more miles (16+ km)
Ceiling: at least 12,000 feet AGL
Clouds: sky clear below 12,000 feet AGL
Weather: automated observation with no human augmentation;
there may or may not be significant weather present at this time

METAR text: KMHV 130420Z AUTO 32008KT 10SM CLR 15/M06 A3008 RMK A01
Conditions at: KMHV (MOJAVE , CA, US) observed 0420 UTC 13 November 2019
Temperature: 15.0°C (59°F)
Dewpoint: -6.0°C (21°F) [RH = 23%]
Pressure (altimeter): 30.08 inches Hg (1018.7 mb)
Winds: from the NW (320 degrees) at 9 MPH (8 knots; 4.1 m/s)
Visibility: 10 or more miles (16+ km)
Ceiling: at least 12,000 feet AGL
Clouds: sky clear below 12,000 feet AGL
Weather: automated observation with no human augmentation;
there may or may not be significant weather present at this time

METAR text: KMHV 130400Z AUTO 33009KT 10SM CLR 15/M05 A3008 RMK A01
Conditions at: KMHV (MOJAVE , CA, US) observed 0400 UTC 13 November 2019
Temperature: 15.0°C (59°F)
Dewpoint: -5.0°C (23°F) [RH = 25%]
Pressure (altimeter): 30.08 inches Hg (1018.7 mb)
Winds: from the NNW (330 degrees) at 10 MPH (9 knots; 4.6 m/s)
Visibility: 10 or more miles (16+ km)
Ceiling: at least 12,000 feet AGL
Clouds: sky clear below 12,000 feet AGL
Weather: automated observation with no human augmentation;
there may or may not be significant weather present at this time

METAR text: KMHV 130340Z AUTO 32009KT 10SM CLR 15/M06 A3008 RMK A01
Conditions at: KMHV (MOJAVE , CA, US) observed 0340 UTC 13 November 2019
Temperature: 15.0°C (59°F)
Dewpoint: -6.0°C (21°F) [RH = 23%]
Pressure (altimeter): 30.08 inches Hg (1018.7 mb)
Winds: from the NW (320 degrees) at 10 MPH (9 knots; 4.6 m/s)
Visibility: 10 or more miles (16+ km)
Ceiling: at least 12,000 feet AGL
Clouds: sky clear below 12,000 feet AGL
Weather: automated observation with no human augmentation;
there may or may not be significant weather present at this time

METAR text: KMHV 130320Z AUTO 32005KT 10SM CLR 15/M07 A3008 RMK A01
Conditions at: KMHV (MOJAVE , CA, US) observed 0320 UTC 13 November 2019
Temperature: 15.0°C (59°F)
Dewpoint: -7.0°C (19°F) [RH = 21%]
Pressure (altimeter): 30.08 inches Hg (1018.7 mb)
Winds: from the NW (320 degrees) at 6 MPH (5 knots; 2.6 m/s)
Visibility: 10 or more miles (16+ km)
Ceiling: at least 12,000 feet AGL
Clouds: sky clear below 12,000 feet AGL
Weather: automated observation with no human augmentation;
there may or may not be significant weather present at this time

METAR text: KMHV 130300Z AUTO 00000KT 10SM CLR 17/M06 A3009 RMK A01
Conditions at: KMHV (MOJAVE , CA, US) observed 0300 UTC 13 November 2019
Temperature: 17.0°C (63°F)
Dewpoint: -6.0°C (21°F) [RH = 20%]
Pressure (altimeter): 30.09 inches Hg (1019.0 mb)
Winds: calm
Visibility: 10 or more miles (16+ km)
Ceiling: at least 12,000 feet AGL
Clouds: sky clear below 12,000 feet AGL
Weather: automated observation with no human augmentation;
there may or may not be significant weather present at this time

METAR text: KMHV 130240Z AUTO 31004KT 10SM CLR 15/M08 A3008 RMK A01
Conditions at: KMHV (MOJAVE , CA, US) observed 0240 UTC 13 November 2019
Temperature: 15.0°C (59°F)
Dewpoint: -8.0°C (18°F) [RH = 20%]
Pressure (altimeter): 30.08 inches Hg (1018.7 mb)
Winds: from the NW (310 degrees) at 5 MPH (4 knots; 2.1 m/s)
Visibility: 10 or more miles (16+ km)
Ceiling: at least 12,000 feet AGL
Clouds: sky clear below 12,000 feet AGL
Weather: automated observation with no human augmentation;
there may or may not be significant weather present at this time

METAR text: KMHV 130220Z AUTO 10SM CLR 16/M08 A3008 RMK A01
Conditions at: KMHV (MOJAVE , CA, US) observed 0220 UTC 13 November 2019
Temperature: 16.0°C (61°F)
Dewpoint: -8.0°C (18°F) [RH = 18%]
Pressure (altimeter): 30.08 inches Hg (1018.7 mb)
Winds: missing
Visibility: 10 or more miles (16+ km)
Ceiling: at least 12,000 feet AGL
Clouds: sky clear below 12,000 feet AGL
Weather: automated observation with no human augmentation;
there may or may not be significant weather present at this time

METAR text: KMHV 130200Z AUTO 23003KT 10SM CLR 15/M09 A3008 RMK A01
Conditions at: KMHV (MOJAVE , CA, US) observed 0200 UTC 13 November 2019
Temperature: 15.0°C (59°F)
Dewpoint: -9.0°C (16°F) [RH = 18%]
Pressure (altimeter): 30.08 inches Hg (1018.7 mb)
Winds: from the SW (230 degrees) at 3 MPH (3 knots; 1.5 m/s)
Visibility: 10 or more miles (16+ km)
Ceiling: at least 12,000 feet AGL
Clouds: sky clear below 12,000 feet AGL
Weather: automated observation with no human augmentation;
there may or may not be significant weather present at this time

METAR text: KMHV 130140Z AUTO 00000KT 10SM CLR 17/M08 A3008 RMK A01
Conditions at: KMHV (MOJAVE , CA, US) observed 0140 UTC 13 November 2019
Temperature: 17.0°C (63°F)
Dewpoint: -8.0°C (18°F) [RH = 17%]
Pressure (altimeter): 30.08 inches Hg (1018.7 mb)
Winds: calm
Visibility: 10 or more miles (16+ km)
Ceiling: at least 12,000 feet AGL
Clouds: sky clear below 12,000 feet AGL
Weather: automated observation with no human augmentation;
there may or may not be significant weather present at this time

METAR text: KMHV 130120Z AUTO 15003KT 10SM CLR 21/M07 A3008 RMK A01
Conditions at: KMHV (MOJAVE , CA, US) observed 0120 UTC 13 November 2019
Temperature: 21.0°C (70°F)
Dewpoint: -7.0°C (19°F) [RH = 15%]
Pressure (altimeter): 30.08 inches Hg (1018.7 mb)
Winds: from the SSE (150 degrees) at 3 MPH (3 knots; 1.5 m/s)
Visibility: 10 or more miles (16+ km)
Ceiling: at least 12,000 feet AGL
Clouds: sky clear below 12,000 feet AGL
Weather: automated observation with no human augmentation;
there may or may not be significant weather present at this time

METAR text: KMHV 130100Z AUTO 15004KT 10SM CLR 22/M07 A3007 RMK A01
Conditions at: KMHV (MOJAVE , CA, US) observed 0100 UTC 13 November 2019
Temperature: 22.0°C (72°F)
Dewpoint: -7.0°C (19°F) [RH = 14%]
Pressure (altimeter): 30.07 inches Hg (1018.4 mb)
Winds: from the SSE (150 degrees) at 5 MPH (4 knots; 2.1 m/s)
Visibility: 10 or more miles (16+ km)
Ceiling: at least 12,000 feet AGL
Clouds: sky clear below 12,000 feet AGL
Weather: automated observation with no human augmentation;
there may or may not be significant weather present at this time

METAR text: KMHV 130040Z AUTO 13004KT 10SM CLR 23/M07 A3007 RMK A01
Conditions at: KMHV (MOJAVE , CA, US) observed 0040 UTC 13 November 2019
Temperature: 23.0°C (73°F)
Dewpoint: -7.0°C (19°F) [RH = 13%]
Pressure (altimeter): 30.07 inches Hg (1018.4 mb)
Winds: from the SE (130 degrees) at 5 MPH (4 knots; 2.1 m/s)
Visibility: 10 or more miles (16+ km)
Ceiling: at least 12,000 feet AGL
Clouds: sky clear below 12,000 feet AGL
Weather: automated observation with no human augmentation;
there may or may not be significant weather present at this time

METAR text: KMHV 130020Z AUTO 14005KT 10SM CLR 24/M07 A3007 RMK A01
Conditions at: KMHV (MOJAVE , CA, US) observed 0020 UTC 13 November 2019
Temperature: 24.0°C (75°F)
Dewpoint: -7.0°C (19°F) [RH = 12%]
Pressure (altimeter): 30.07 inches Hg (1018.4 mb)
Winds: from the SE (140 degrees) at 6 MPH (5 knots; 2.6 m/s)
Visibility: 10 or more miles (16+ km)
Ceiling: at least 12,000 feet AGL
Clouds: sky clear below 12,000 feet AGL
Weather: automated observation with no human augmentation;
there may or may not be significant weather present at this time

METAR text: KMHV 130000Z AUTO 15005KT 10SM CLR 24/M07 A3007 RMK A01
Conditions at: KMHV (MOJAVE , CA, US) observed 0000 UTC 13 November 2019
Temperature: 24.0°C (75°F)
Dewpoint: -7.0°C (19°F) [RH = 12%]
Pressure (altimeter): 30.07 inches Hg (1018.4 mb)
Winds: from the SSE (150 degrees) at 6 MPH (5 knots; 2.6 m/s)
Visibility: 10 or more miles (16+ km)
Ceiling: at least 12,000 feet AGL
Clouds: sky clear below 12,000 feet AGL
Weather: automated observation with no human augmentation;
there may or may not be significant weather present at this time

METAR text: KMHV 122340Z AUTO 14004KT 10SM CLR 25/M07 A3007 RMK A01
Conditions at: KMHV (MOJAVE , CA, US) observed 2340 UTC 12 November 2019
Temperature: 25.0°C (77°F)
Dewpoint: -7.0°C (19°F) [RH = 11%]
Pressure (altimeter): 30.07 inches Hg (1018.4 mb)
Winds: from the SE (140 degrees) at 5 MPH (4 knots; 2.1 m/s)
Visibility: 10 or more miles (16+ km)
Ceiling: at least 12,000 feet AGL
Clouds: sky clear below 12,000 feet AGL
Weather: automated observation with no human augmentation;
there may or may not be significant weather present at this time

METAR text: KMHV 122320Z AUTO 14005KT 10SM CLR 25/M06 A3008 RMK A01
Conditions at: KMHV (MOJAVE , CA, US) observed 2320 UTC 12 November 2019
Temperature: 25.0°C (77°F)
Dewpoint: -6.0°C (21°F) [RH = 12%]
Pressure (altimeter): 30.08 inches Hg (1018.7 mb)
Winds: from the SE (140 degrees) at 6 MPH (5 knots; 2.6 m/s)
Visibility: 10 or more miles (16+ km)
Ceiling: at least 12,000 feet AGL
Clouds: sky clear below 12,000 feet AGL
Weather: automated observation with no human augmentation;
there may or may not be significant weather present at this time

METAR text: KMHV 122300Z AUTO 15004KT 10SM CLR 25/M06 A3008 RMK A01
Conditions at: KMHV (MOJAVE , CA, US) observed 2300 UTC 12 November 2019
Temperature: 25.0°C (77°F)
Dewpoint: -6.0°C (21°F) [RH = 12%]
Pressure (altimeter): 30.08 inches Hg (1018.7 mb)
Winds: from the SSE (150 degrees) at 5 MPH (4 knots; 2.1 m/s)
Visibility: 10 or more miles (16+ km)
Ceiling: at least 12,000 feet AGL
Clouds: sky clear below 12,000 feet AGL
Weather: automated observation with no human augmentation;
there may or may not be significant weather present at this time

METAR text: KMHV 122240Z AUTO VRB04KT 10SM CLR 25/M06 A3008 RMK A01
Conditions at: KMHV (MOJAVE , CA, US) observed 2240 UTC 12 November 2019
Temperature: 25.0°C (77°F)
Dewpoint: -6.0°C (21°F) [RH = 12%]
Pressure (altimeter): 30.08 inches Hg (1018.7 mb)
Winds: variable direction winds at 5 MPH (4 knots; 2.1 m/s)
Visibility: 10 or more miles (16+ km)
Ceiling: at least 12,000 feet AGL
Clouds: sky clear below 12,000 feet AGL
Weather: automated observation with no human augmentation;
there may or may not be significant weather present at this time

METAR text: KMHV 122220Z AUTO 12003KT 10SM CLR 25/M06 A3008 RMK A01
Conditions at: KMHV (MOJAVE , CA, US) observed 2220 UTC 12 November 2019
Temperature: 25.0°C (77°F)
Dewpoint: -6.0°C (21°F) [RH = 12%]
Pressure (altimeter): 30.08 inches Hg (1018.7 mb)
Winds: from the ESE (120 degrees) at 3 MPH (3 knots; 1.5 m/s)
Visibility: 10 or more miles (16+ km)
Ceiling: at least 12,000 feet AGL
Clouds: sky clear below 12,000 feet AGL
Weather: automated observation with no human augmentation;
there may or may not be significant weather present at this time

METAR text: KMHV 122200Z AUTO 12005KT 10SM CLR 24/M06 A3009 RMK A01
Conditions at: KMHV (MOJAVE , CA, US) observed 2200 UTC 12 November 2019
Temperature: 24.0°C (75°F)
Dewpoint: -6.0°C (21°F) [RH = 13%]
Pressure (altimeter): 30.09 inches Hg (1019.0 mb)
Winds: from the ESE (120 degrees) at 6 MPH (5 knots; 2.6 m/s)
Visibility: 10 or more miles (16+ km)
Ceiling: at least 12,000 feet AGL
Clouds: sky clear below 12,000 feet AGL
Weather: automated observation with no human augmentation;
there may or may not be significant weather present at this time

METAR text: KMHV 122140Z AUTO VRB04G11KT 10SM CLR 25/M06 A3010 RMK A01
Conditions at: KMHV (MOJAVE , CA, US) observed 2140 UTC 12 November 2019
Temperature: 25.0°C (77°F)
Dewpoint: -6.0°C (21°F) [RH = 12%]
Pressure (altimeter): 30.10 inches Hg (1019.4 mb)
Winds: variable direction winds at 5 MPH (4 knots; 2.1 m/s)
gusting to 13 MPH (11 knots; 5.7 m/s)
Visibility: 10 or more miles (16+ km)
Ceiling: at least 12,000 feet AGL
Clouds: sky clear below 12,000 feet AGL
Weather: automated observation with no human augmentation;
there may or may not be significant weather present at this time

METAR text: KMHV 122120Z AUTO 16006KT 10SM CLR 24/M06 A3011 RMK A01
Conditions at: KMHV (MOJAVE , CA, US) observed 2120 UTC 12 November 2019
Temperature: 24.0°C (75°F)
Dewpoint: -6.0°C (21°F) [RH = 13%]
Pressure (altimeter): 30.11 inches Hg (1019.7 mb)
Winds: from the SSE (160 degrees) at 7 MPH (6 knots; 3.1 m/s)
Visibility: 10 or more miles (16+ km)
Ceiling: at least 12,000 feet AGL
Clouds: sky clear below 12,000 feet AGL
Weather: automated observation with no human augmentation;
there may or may not be significant weather present at this time

METAR text: KMHV 122100Z AUTO 00000KT 10SM CLR 24/M06 A3011 RMK A01
Conditions at: KMHV (MOJAVE , CA, US) observed 2100 UTC 12 November 2019
Temperature: 24.0°C (75°F)
Dewpoint: -6.0°C (21°F) [RH = 13%]
Pressure (altimeter): 30.11 inches Hg (1019.7 mb)
Winds: calm
Visibility: 10 or more miles (16+ km)
Ceiling: at least 12,000 feet AGL
Clouds: sky clear below 12,000 feet AGL
Weather: automated observation with no human augmentation;
there may or may not be significant weather present at this time

METAR text: KMHV 122040Z AUTO 16004KT 10SM CLR 24/M06 A3013 RMK A01
Conditions at: KMHV (MOJAVE , CA, US) observed 2040 UTC 12 November 2019
Temperature: 24.0°C (75°F)
Dewpoint: -6.0°C (21°F) [RH = 13%]
Pressure (altimeter): 30.13 inches Hg (1020.4 mb)
Winds: from the SSE (160 degrees) at 5 MPH (4 knots; 2.1 m/s)
Visibility: 10 or more miles (16+ km)
Ceiling: at least 12,000 feet AGL
Clouds: sky clear below 12,000 feet AGL
Weather: automated observation with no human augmentation;
there may or may not be significant weather present at this time

METAR text: KMHV 122020Z AUTO 00000KT 10SM CLR 24/M06 A3014 RMK A01
Conditions at: KMHV (MOJAVE , CA, US) observed 2020 UTC 12 November 2019
Temperature: 24.0°C (75°F)
Dewpoint: -6.0°C (21°F) [RH = 13%]
Pressure (altimeter): 30.14 inches Hg (1020.7 mb)
Winds: calm
Visibility: 10 or more miles (16+ km)
Ceiling: at least 12,000 feet AGL
Clouds: sky clear below 12,000 feet AGL
Weather: automated observation with no human augmentation;
there may or may not be significant weather present at this time

METAR text: KMHV 122000Z AUTO 00000KT 10SM CLR 23/M06 A3015 RMK A01
Conditions at: KMHV (MOJAVE , CA, US) observed 2000 UTC 12 November 2019
Temperature: 23.0°C (73°F)
Dewpoint: -6.0°C (21°F) [RH = 14%]
Pressure (altimeter): 30.15 inches Hg (1021.1 mb)
Winds: calm
Visibility: 10 or more miles (16+ km)
Ceiling: at least 12,000 feet AGL
Clouds: sky clear below 12,000 feet AGL
Weather: automated observation with no human augmentation;
there may or may not be significant weather present at this time

METAR text: KMHV 121940Z AUTO 00000KT 10SM CLR 23/M07 A3016 RMK A01
Conditions at: KMHV (MOJAVE , CA, US) observed 1940 UTC 12 November 2019
Temperature: 23.0°C (73°F)
Dewpoint: -7.0°C (19°F) [RH = 13%]
Pressure (altimeter): 30.16 inches Hg (1021.4 mb)
Winds: calm
Visibility: 10 or more miles (16+ km)
Ceiling: at least 12,000 feet AGL
Clouds: sky clear below 12,000 feet AGL
Weather: automated observation with no human augmentation;
there may or may not be significant weather present at this time

METAR text: KMHV 121920Z AUTO 00000KT 10SM CLR 23/M07 A3017 RMK A01
Conditions at: KMHV (MOJAVE , CA, US) observed 1920 UTC 12 November 2019
Temperature: 23.0°C (73°F)
Dewpoint: -7.0°C (19°F) [RH = 13%]
Pressure (altimeter): 30.17 inches Hg (1021.8 mb)
Winds: calm
Visibility: 10 or more miles (16+ km)
Ceiling: at least 12,000 feet AGL
Clouds: sky clear below 12,000 feet AGL
Weather: automated observation with no human augmentation;
there may or may not be significant weather present at this time

METAR text: KMHV 121900Z AUTO VRB03KT 10SM CLR 23/M07 A3018 RMK A01
Conditions at: KMHV (MOJAVE , CA, US) observed 1900 UTC 12 November 2019
Temperature: 23.0°C (73°F)
Dewpoint: -7.0°C (19°F) [RH = 13%]
Pressure (altimeter): 30.18 inches Hg (1022.1 mb)
Winds: variable direction winds at 3 MPH (3 knots; 1.5 m/s)
Visibility: 10 or more miles (16+ km)
Ceiling: at least 12,000 feet AGL
Clouds: sky clear below 12,000 feet AGL
Weather: automated observation with no human augmentation;
there may or may not be significant weather present at this time

METAR text: KMHV 121840Z AUTO 15004KT 10SM CLR 22/M08 A3019 RMK A01
Conditions at: KMHV (MOJAVE , CA, US) observed 1840 UTC 12 November 2019
Temperature: 22.0°C (72°F)
Dewpoint: -8.0°C (18°F) [RH = 13%]
Pressure (altimeter): 30.19 inches Hg (1022.4 mb)
Winds: from the SSE (150 degrees) at 5 MPH (4 knots; 2.1 m/s)
Visibility: 10 or more miles (16+ km)
Ceiling: at least 12,000 feet AGL
Clouds: sky clear below 12,000 feet AGL
Weather: automated observation with no human augmentation;
there may or may not be significant weather present at this time

METAR text: KMHV 121820Z AUTO 10003KT 10SM CLR 22/M08 A3019 RMK A01
Conditions at: KMHV (MOJAVE , CA, US) observed 1820 UTC 12 November 2019
Temperature: 22.0°C (72°F)
Dewpoint: -8.0°C (18°F) [RH = 13%]
Pressure (altimeter): 30.19 inches Hg (1022.4 mb)
Winds: from the E (100 degrees) at 3 MPH (3 knots; 1.5 m/s)
Visibility: 10 or more miles (16+ km)
Ceiling: at least 12,000 feet AGL
Clouds: sky clear below 12,000 feet AGL
Weather: automated observation with no human augmentation;
there may or may not be significant weather present at this time

METAR text: KMHV 121800Z AUTO 00000KT 10SM CLR 21/M08 A3020 RMK A01
Conditions at: KMHV (MOJAVE , CA, US) observed 1800 UTC 12 November 2019
Temperature: 21.0°C (70°F)
Dewpoint: -8.0°C (18°F) [RH = 13%]
Pressure (altimeter): 30.20 inches Hg (1022.8 mb)
Winds: calm
Visibility: 10 or more miles (16+ km)
Ceiling: at least 12,000 feet AGL
Clouds: sky clear below 12,000 feet AGL
Weather: automated observation with no human augmentation;
there may or may not be significant weather present at this time

METAR text: KMHV 121740Z AUTO 00000KT 10SM CLR 20/M08 A3020 RMK A01
Conditions at: KMHV (MOJAVE , CA, US) observed 1740 UTC 12 November 2019
Temperature: 20.0°C (68°F)
Dewpoint: -8.0°C (18°F) [RH = 14%]
Pressure (altimeter): 30.20 inches Hg (1022.8 mb)
Winds: calm
Visibility: 10 or more miles (16+ km)
Ceiling: at least 12,000 feet AGL
Clouds: sky clear below 12,000 feet AGL
Weather: automated observation with no human augmentation;
there may or may not be significant weather present at this time

METAR text: KMHV 121720Z AUTO 09003KT 10SM CLR 19/M08 A3020 RMK A01
Conditions at: KMHV (MOJAVE , CA, US) observed 1720 UTC 12 November 2019
Temperature: 19.0°C (66°F)
Dewpoint: -8.0°C (18°F) [RH = 15%]
Pressure (altimeter): 30.20 inches Hg (1022.8 mb)
Winds: from the E (90 degrees) at 3 MPH (3 knots; 1.5 m/s)
Visibility: 10 or more miles (16+ km)
Ceiling: at least 12,000 feet AGL
Clouds: sky clear below 12,000 feet AGL
Weather: automated observation with no human augmentation;
there may or may not be significant weather present at this time

METAR text: KMHV 121700Z AUTO 09003KT 10SM CLR 19/M08 A3020 RMK A01
Conditions at: KMHV (MOJAVE , CA, US) observed 1700 UTC 12 November 2019
Temperature: 19.0°C (66°F)
Dewpoint: -8.0°C (18°F) [RH = 15%]
Pressure (altimeter): 30.20 inches Hg (1022.8 mb)
Winds: from the E (90 degrees) at 3 MPH (3 knots; 1.5 m/s)
Visibility: 10 or more miles (16+ km)
Ceiling: at least 12,000 feet AGL
Clouds: sky clear below 12,000 feet AGL
Weather: automated observation with no human augmentation;
there may or may not be significant weather present at this time

METAR text: KMHV 121640Z AUTO 00000KT 10SM CLR 18/M08 A3020 RMK A01
Conditions at: KMHV (MOJAVE , CA, US) observed 1640 UTC 12 November 2019
Temperature: 18.0°C (64°F)
Dewpoint: -8.0°C (18°F) [RH = 16%]
Pressure (altimeter): 30.20 inches Hg (1022.8 mb)
Winds: calm
Visibility: 10 or more miles (16+ km)
Ceiling: at least 12,000 feet AGL
Clouds: sky clear below 12,000 feet AGL
Weather: automated observation with no human augmentation;
there may or may not be significant weather present at this time

METAR text: KMHV 121620Z AUTO 02004KT 10SM CLR 18/M08 A3020 RMK A01
Conditions at: KMHV (MOJAVE , CA, US) observed 1620 UTC 12 November 2019
Temperature: 18.0°C (64°F)
Dewpoint: -8.0°C (18°F) [RH = 16%]
Pressure (altimeter): 30.20 inches Hg (1022.8 mb)
Winds: from the NNE (20 degrees) at 5 MPH (4 knots; 2.1 m/s)
Visibility: 10 or more miles (16+ km)
Ceiling: at least 12,000 feet AGL
Clouds: sky clear below 12,000 feet AGL
Weather: automated observation with no human augmentation;
there may or may not be significant weather present at this time

METAR text: KMHV 121600Z AUTO 00000KT 9SM CLR 17/M08 A3020 RMK A01
Conditions at: KMHV (MOJAVE , CA, US) observed 1600 UTC 12 November 2019
Temperature: 17.0°C (63°F)
Dewpoint: -8.0°C (18°F) [RH = 17%]
Pressure (altimeter): 30.20 inches Hg (1022.8 mb)
Winds: calm
Visibility: 9 miles (14 km)
Ceiling: at least 12,000 feet AGL
Clouds: sky clear below 12,000 feet AGL
Weather: automated observation with no human augmentation;
there may or may not be significant weather present at this time

METAR text: KMHV 121540Z AUTO 36003KT 7SM CLR 15/M08 A3019 RMK A01
Conditions at: KMHV (MOJAVE , CA, US) observed 1540 UTC 12 November 2019
Temperature: 15.0°C (59°F)
Dewpoint: -8.0°C (18°F) [RH = 20%]
Pressure (altimeter): 30.19 inches Hg (1022.4 mb)
Winds: from the N (360 degrees) at 3 MPH (3 knots; 1.5 m/s)
Visibility: 7 miles (11 km)
Ceiling: at least 12,000 feet AGL
Clouds: sky clear below 12,000 feet AGL
Weather: automated observation with no human augmentation;
there may or may not be significant weather present at this time

METAR text: KMHV 121520Z AUTO 00000KT 8SM CLR 12/M09 A3018 RMK A01
Conditions at: KMHV (MOJAVE , CA, US) observed 1520 UTC 12 November 2019
Temperature: 12.0°C (54°F)
Dewpoint: -9.0°C (16°F) [RH = 22%]
Pressure (altimeter): 30.18 inches Hg (1022.1 mb)
Winds: calm
Visibility: 8 miles (13 km)
Ceiling: at least 12,000 feet AGL
Clouds: sky clear below 12,000 feet AGL
Weather: automated observation with no human augmentation;
there may or may not be significant weather present at this time

METAR text: KMHV 121500Z AUTO 33004KT 7SM CLR 09/M09 A3017 RMK A01
Conditions at: KMHV (MOJAVE , CA, US) observed 1500 UTC 12 November 2019
Temperature: 9.0°C (48°F)
Dewpoint: -9.0°C (16°F) [RH = 27%]
Pressure (altimeter): 30.17 inches Hg (1021.8 mb)
Winds: from the NNW (330 degrees) at 5 MPH (4 knots; 2.1 m/s)
Visibility: 7 miles (11 km)
Ceiling: at least 12,000 feet AGL
Clouds: sky clear below 12,000 feet AGL
Weather: automated observation with no human augmentation;
there may or may not be significant weather present at this time

METAR text: KMHV 121440Z AUTO 00000KT 4SM HZ CLR 08/M10 A3017 RMK A01
Conditions at: KMHV (MOJAVE , CA, US) observed 1440 UTC 12 November 2019
Temperature: 8.0°C (46°F)
Dewpoint: -10.0°C (14°F) [RH = 27%]
Pressure (altimeter): 30.17 inches Hg (1021.8 mb)
Winds: calm
Visibility: 4 miles ( 6 km)
Ceiling: at least 12,000 feet AGL
Clouds: sky clear below 12,000 feet AGL
Weather: HZ  (haze)

METAR text: KMHV 121420Z AUTO 34004KT 5SM HZ CLR 08/M10 A3016 RMK A01
Conditions at: KMHV (MOJAVE , CA, US) observed 1420 UTC 12 November 2019
Temperature: 8.0°C (46°F)
Dewpoint: -10.0°C (14°F) [RH = 27%]
Pressure (altimeter): 30.16 inches Hg (1021.4 mb)
Winds: from the NNW (340 degrees) at 5 MPH (4 knots; 2.1 m/s)
Visibility: 5 miles ( 8 km)
Ceiling: at least 12,000 feet AGL
Clouds: sky clear below 12,000 feet AGL
Weather: HZ  (haze)

METAR text: KMHV 121400Z AUTO 00000KT 10SM CLR 08/M10 A3016 RMK A01
Conditions at: KMHV (MOJAVE , CA, US) observed 1400 UTC 12 November 2019
Temperature: 8.0°C (46°F)
Dewpoint: -10.0°C (14°F) [RH = 27%]
Pressure (altimeter): 30.16 inches Hg (1021.4 mb)
Winds: calm
Visibility: 10 or more miles (16+ km)
Ceiling: at least 12,000 feet AGL
Clouds: sky clear below 12,000 feet AGL
Weather: automated observation with no human augmentation;
there may or may not be significant weather present at this time

METAR text: KMHV 121340Z AUTO 32003KT 9SM CLR 08/M10 A3016 RMK A01
Conditions at: KMHV (MOJAVE , CA, US) observed 1340 UTC 12 November 2019
Temperature: 8.0°C (46°F)
Dewpoint: -10.0°C (14°F) [RH = 27%]
Pressure (altimeter): 30.16 inches Hg (1021.4 mb)
Winds: from the NW (320 degrees) at 3 MPH (3 knots; 1.5 m/s)
Visibility: 9 miles (14 km)
Ceiling: at least 12,000 feet AGL
Clouds: sky clear below 12,000 feet AGL
Weather: automated observation with no human augmentation;
there may or may not be significant weather present at this time

METAR text: KMHV 121320Z AUTO 00000KT 10SM CLR 08/M10 A3016 RMK A01
Conditions at: KMHV (MOJAVE , CA, US) observed 1320 UTC 12 November 2019
Temperature: 8.0°C (46°F)
Dewpoint: -10.0°C (14°F) [RH = 27%]
Pressure (altimeter): 30.16 inches Hg (1021.4 mb)
Winds: calm
Visibility: 10 or more miles (16+ km)
Ceiling: at least 12,000 feet AGL
Clouds: sky clear below 12,000 feet AGL
Weather: automated observation with no human augmentation;
there may or may not be significant weather present at this time

METAR text: KMHV 121300Z AUTO 00000KT 10SM CLR 09/M10 A3015 RMK A01
Conditions at: KMHV (MOJAVE , CA, US) observed 1300 UTC 12 November 2019
Temperature: 9.0°C (48°F)
Dewpoint: -10.0°C (14°F) [RH = 25%]
Pressure (altimeter): 30.15 inches Hg (1021.1 mb)
Winds: calm
Visibility: 10 or more miles (16+ km)
Ceiling: at least 12,000 feet AGL
Clouds: sky clear below 12,000 feet AGL
Weather: automated observation with no human augmentation;
there may or may not be significant weather present at this time

METAR text: KMHV 121240Z AUTO 00000KT 10SM CLR 09/M09 A3015 RMK A01
Conditions at: KMHV (MOJAVE , CA, US) observed 1240 UTC 12 November 2019
Temperature: 9.0°C (48°F)
Dewpoint: -9.0°C (16°F) [RH = 27%]
Pressure (altimeter): 30.15 inches Hg (1021.1 mb)
Winds: calm
Visibility: 10 or more miles (16+ km)
Ceiling: at least 12,000 feet AGL
Clouds: sky clear below 12,000 feet AGL
Weather: automated observation with no human augmentation;
there may or may not be significant weather present at this time

METAR text: KMHV 121220Z AUTO 00000KT 10SM CLR 10/M09 A3015 RMK A01
Conditions at: KMHV (MOJAVE , CA, US) observed 1220 UTC 12 November 2019
Temperature: 10.0°C (50°F)
Dewpoint: -9.0°C (16°F) [RH = 25%]
Pressure (altimeter): 30.15 inches Hg (1021.1 mb)
Winds: calm
Visibility: 10 or more miles (16+ km)
Ceiling: at least 12,000 feet AGL
Clouds: sky clear below 12,000 feet AGL
Weather: automated observation with no human augmentation;
there may or may not be significant weather present at this time

METAR text: KMHV 121200Z AUTO 31005KT 10SM CLR 10/M09 A3014 RMK A01
Conditions at: KMHV (MOJAVE , CA, US) observed 1200 UTC 12 November 2019
Temperature: 10.0°C (50°F)
Dewpoint: -9.0°C (16°F) [RH = 25%]
Pressure (altimeter): 30.14 inches Hg (1020.7 mb)
Winds: from the NW (310 degrees) at 6 MPH (5 knots; 2.6 m/s)
Visibility: 10 or more miles (16+ km)
Ceiling: at least 12,000 feet AGL
Clouds: sky clear below 12,000 feet AGL
Weather: automated observation with no human augmentation;
there may or may not be significant weather present at this time

METAR text: KMHV 121140Z AUTO 00000KT 10SM FEW046 FEW055 09/M11 A3015 RMK A01
Conditions at: KMHV (MOJAVE , CA, US) observed 1140 UTC 12 November 2019
Temperature: 9.0°C (48°F)
Dewpoint: -11.0°C (12°F) [RH = 23%]
Pressure (altimeter): 30.15 inches Hg (1021.1 mb)
Winds: calm
Visibility: 10 or more miles (16+ km)
Ceiling: at least 12,000 feet AGL
Clouds: few clouds at 4600 feet AGL
few clouds at 5500 feet AGL
Weather: automated observation with no human augmentation;
there may or may not be significant weather present at this time

METAR text: KMHV 121120Z AUTO 30003KT 10SM CLR 09/M10 A3015 RMK A01
Conditions at: KMHV (MOJAVE , CA, US) observed 1120 UTC 12 November 2019
Temperature: 9.0°C (48°F)
Dewpoint: -10.0°C (14°F) [RH = 25%]
Pressure (altimeter): 30.15 inches Hg (1021.1 mb)
Winds: from the WNW (300 degrees) at 3 MPH (3 knots; 1.5 m/s)
Visibility: 10 or more miles (16+ km)
Ceiling: at least 12,000 feet AGL
Clouds: sky clear below 12,000 feet AGL
Weather: automated observation with no human augmentation;
there may or may not be significant weather present at this time

METAR text: KMHV 121100Z AUTO 00000KT 8SM FEW041 FEW048 10/M10 A3015 RMK A01
Conditions at: KMHV (MOJAVE , CA, US) observed 1100 UTC 12 November 2019
Temperature: 10.0°C (50°F)
Dewpoint: -10.0°C (14°F) [RH = 23%]
Pressure (altimeter): 30.15 inches Hg (1021.1 mb)
Winds: calm
Visibility: 8 miles (13 km)
Ceiling: at least 12,000 feet AGL
Clouds: few clouds at 4100 feet AGL
few clouds at 4800 feet AGL
Weather: automated observation with no human augmentation;
there may or may not be significant weather present at this time

METAR text: KMHV 121040Z AUTO 00000KT 9SM FEW042 10/M10 A3015 RMK A01
Conditions at: KMHV (MOJAVE , CA, US) observed 1040 UTC 12 November 2019
Temperature: 10.0°C (50°F)
Dewpoint: -10.0°C (14°F) [RH = 23%]
Pressure (altimeter): 30.15 inches Hg (1021.1 mb)
Winds: calm
Visibility: 9 miles (14 km)
Ceiling: at least 12,000 feet AGL
Clouds: few clouds at 4200 feet AGL
Weather: automated observation with no human augmentation;
there may or may not be significant weather present at this time

METAR text: KMHV 121020Z AUTO 35006KT 10SM CLR 10/M10 A3015 RMK A01
Conditions at: KMHV (MOJAVE , CA, US) observed 1020 UTC 12 November 2019
Temperature: 10.0°C (50°F)
Dewpoint: -10.0°C (14°F) [RH = 23%]
Pressure (altimeter): 30.15 inches Hg (1021.1 mb)
Winds: from the N (350 degrees) at 7 MPH (6 knots; 3.1 m/s)
Visibility: 10 or more miles (16+ km)
Ceiling: at least 12,000 feet AGL
Clouds: sky clear below 12,000 feet AGL
Weather: automated observation with no human augmentation;
there may or may not be significant weather present at this time

METAR text: KMHV 121000Z AUTO 33006KT 10SM FEW046 11/M11 A3016 RMK A01
Conditions at: KMHV (MOJAVE , CA, US) observed 1000 UTC 12 November 2019
Temperature: 11.0°C (52°F)
Dewpoint: -11.0°C (12°F) [RH = 20%]
Pressure (altimeter): 30.16 inches Hg (1021.4 mb)
Winds: from the NNW (330 degrees) at 7 MPH (6 knots; 3.1 m/s)
Visibility: 10 or more miles (16+ km)
Ceiling: at least 12,000 feet AGL
Clouds: few clouds at 4600 feet AGL
Weather: automated observation with no human augmentation;
there may or may not be significant weather present at this time

METAR text: KMHV 120940Z AUTO 33005KT 10SM FEW047 11/M11 A3016 RMK A01
Conditions at: KMHV (MOJAVE , CA, US) observed 0940 UTC 12 November 2019
Temperature: 11.0°C (52°F)
Dewpoint: -11.0°C (12°F) [RH = 20%]
Pressure (altimeter): 30.16 inches Hg (1021.4 mb)
Winds: from the NNW (330 degrees) at 6 MPH (5 knots; 2.6 m/s)
Visibility: 10 or more miles (16+ km)
Ceiling: at least 12,000 feet AGL
Clouds: few clouds at 4700 feet AGL
Weather: automated observation with no human augmentation;
there may or may not be significant weather present at this time

METAR text: KMHV 120920Z AUTO 32007KT 10SM FEW047 11/M11 A3016 RMK A01
Conditions at: KMHV (MOJAVE , CA, US) observed 0920 UTC 12 November 2019
Temperature: 11.0°C (52°F)
Dewpoint: -11.0°C (12°F) [RH = 20%]
Pressure (altimeter): 30.16 inches Hg (1021.4 mb)
Winds: from the NW (320 degrees) at 8 MPH (7 knots; 3.6 m/s)
Visibility: 10 or more miles (16+ km)
Ceiling: at least 12,000 feet AGL
Clouds: few clouds at 4700 feet AGL
Weather: automated observation with no human augmentation;
there may or may not be significant weather present at this time